createdAt,value
2017-12-23T00:00:10.652Z,19.98
2017-12-23T00:02:38.145Z,17.70
2017-12-23T00:05:05.625Z,18.62
2017-12-23T00:07:33.930Z,17.25
2017-12-23T00:10:01.394Z,17.00
2017-12-23T00:12:28.836Z,17.15
2017-12-23T00:14:56.326Z,16.05
2017-12-23T00:17:23.778Z,16.55
2017-12-23T00:19:51.249Z,17.90
2017-12-23T00:22:18.693Z,18.52
2017-12-23T00:24:46.206Z,18.48
2017-12-23T00:27:13.656Z,17.08
2017-12-23T00:29:41.190Z,20.90
2017-12-23T00:32:08.611Z,25.58
2017-12-23T00:34:36.056Z,19.37
2017-12-23T00:37:03.540Z,17.40
2017-12-23T00:39:30.980Z,20.48
2017-12-23T00:41:58.433Z,19.10
2017-12-23T00:44:25.983Z,21.05
2017-12-23T00:46:53.422Z,20.37
2017-12-23T00:49:20.972Z,18.17
2017-12-23T00:51:48.424Z,20.90
2017-12-23T00:54:15.856Z,19.70
2017-12-23T00:56:43.308Z,22.95
2017-12-23T00:59:10.856Z,17.75
2017-12-23T01:01:38.387Z,20.15
2017-12-23T01:04:05.827Z,18.98
2017-12-23T01:06:33.384Z,23.12
2017-12-23T01:09:01.583Z,20.30
2017-12-23T01:11:29.036Z,21.12
2017-12-23T01:13:56.472Z,18.80
2017-12-23T01:16:23.924Z,20.83
2017-12-23T01:18:51.352Z,19.45
2017-12-23T01:21:18.825Z,21.05
2017-12-23T01:23:46.264Z,21.05
2017-12-23T01:26:13.749Z,20.27
2017-12-23T01:28:41.964Z,20.10
2017-12-23T01:31:09.408Z,18.90
2017-12-23T01:33:36.855Z,19.42
2017-12-23T01:36:04.296Z,19.05
2017-12-23T01:38:32.641Z,20.33
2017-12-23T01:41:00.069Z,19.20
2017-12-23T01:43:27.525Z,19.05
2017-12-23T01:45:54.952Z,17.60
2017-12-23T01:48:34.293Z,20.30
2017-12-23T01:51:01.743Z,18.90
2017-12-23T01:53:29.202Z,22.30
2017-12-23T01:55:56.620Z,19.67
2017-12-23T01:58:24.081Z,19.58
2017-12-23T02:00:51.518Z,19.20
2017-12-23T02:03:18.969Z,18.95
2017-12-23T02:05:46.415Z,28.00
2017-12-23T02:08:13.852Z,21.48
2017-12-23T02:10:41.297Z,23.02
2017-12-23T02:13:08.751Z,18.33
2017-12-23T02:15:36.200Z,22.33
2017-12-23T02:18:03.660Z,18.62
2017-12-23T02:20:31.116Z,21.87
2017-12-23T02:22:59.329Z,24.33
2017-12-23T02:25:27.952Z,19.98
2017-12-23T02:27:56.179Z,21.77
2017-12-23T02:30:23.697Z,17.48
2017-12-23T02:32:51.174Z,18.70
2017-12-23T02:35:18.620Z,19.15
2017-12-23T02:37:46.159Z,17.75
2017-12-23T02:40:13.840Z,21.65
2017-12-23T02:42:42.050Z,18.05
2017-12-23T02:45:09.528Z,20.35
2017-12-23T02:47:36.953Z,18.30
2017-12-23T02:50:04.404Z,18.98
2017-12-23T02:52:31.980Z,19.37
2017-12-23T02:54:59.348Z,18.75
2017-12-23T02:57:26.781Z,18.92
2017-12-23T02:59:54.231Z,18.60
2017-12-23T03:02:22.595Z,17.23
2017-12-23T03:04:50.192Z,16.02
2017-12-23T03:07:17.632Z,17.80
2017-12-23T03:09:45.080Z,17.48
2017-12-23T03:12:12.526Z,18.62
2017-12-23T03:14:39.956Z,19.40
2017-12-23T03:17:07.409Z,19.20
2017-12-23T03:19:34.853Z,18.48
2017-12-23T03:22:02.313Z,18.05
2017-12-23T03:24:29.744Z,18.42
2017-12-23T03:26:57.185Z,18.50
2017-12-23T03:29:25.384Z,19.45
2017-12-23T03:31:53.640Z,17.70
2017-12-23T03:34:21.089Z,23.83
2017-12-23T03:36:49.302Z,18.40
2017-12-23T03:39:16.740Z,20.48
2017-12-23T03:41:44.194Z,19.40
2017-12-23T03:44:11.650Z,20.60
2017-12-23T03:46:39.100Z,19.40
2017-12-23T03:49:06.560Z,17.65
2017-12-23T03:51:34.774Z,19.00
2017-12-23T03:54:02.216Z,21.33
2017-12-23T03:56:29.657Z,22.37
2017-12-23T03:58:57.088Z,19.30
2017-12-23T04:01:24.535Z,18.45
2017-12-23T04:03:52.015Z,17.30
2017-12-23T04:06:19.464Z,18.85
2017-12-23T04:08:46.931Z,18.77
2017-12-23T04:11:14.375Z,19.40
2017-12-23T04:13:42.588Z,18.67
2017-12-23T04:16:10.025Z,20.02
2017-12-23T04:18:37.488Z,20.67
2017-12-23T04:21:04.936Z,21.60
2017-12-23T04:23:32.382Z,16.95
2017-12-23T04:25:59.825Z,23.98
2017-12-23T04:28:27.267Z,23.08
2017-12-23T04:30:54.789Z,20.05
2017-12-23T04:33:22.337Z,20.92
2017-12-23T04:35:49.780Z,19.92
2017-12-23T04:38:17.224Z,22.65
2017-12-23T04:40:44.655Z,19.00
2017-12-23T04:43:12.104Z,19.10
2017-12-23T04:45:39.560Z,22.65
2017-12-23T04:48:07.053Z,23.25
2017-12-23T04:50:34.484Z,20.48
2017-12-23T04:53:02.013Z,22.23
2017-12-23T04:55:30.200Z,20.85
2017-12-23T04:57:57.643Z,20.90
2017-12-23T05:00:25.092Z,21.25
2017-12-23T05:02:52.574Z,23.25
2017-12-23T05:05:20.024Z,21.83
2017-12-23T05:07:47.494Z,20.35
2017-12-23T05:10:14.936Z,22.95
2017-12-23T05:12:42.381Z,23.20
2017-12-23T05:15:09.952Z,23.62
2017-12-23T05:17:37.372Z,23.15
2017-12-23T05:20:04.878Z,24.12
2017-12-23T05:22:32.383Z,22.67
2017-12-23T05:24:59.808Z,25.88
2017-12-23T05:27:27.245Z,24.35
2017-12-23T05:29:54.690Z,23.45
2017-12-23T05:32:22.119Z,26.17
2017-12-23T05:34:49.624Z,25.98
2017-12-23T05:37:17.072Z,22.60
2017-12-23T05:39:44.512Z,23.98
2017-12-23T05:42:11.957Z,24.12
2017-12-23T05:44:39.384Z,26.20
2017-12-23T05:47:06.904Z,26.80
2017-12-23T05:49:34.377Z,23.87
2017-12-23T05:52:01.880Z,26.33
2017-12-23T05:54:29.321Z,24.27
2017-12-23T05:56:56.781Z,24.40
2017-12-23T05:59:24.218Z,26.50
2017-12-23T06:01:52.552Z,27.50
2017-12-23T06:04:20.048Z,25.20
2017-12-23T06:06:47.500Z,25.52
2017-12-23T06:09:15.719Z,24.65
2017-12-23T06:11:43.151Z,28.45
2017-12-23T06:14:10.690Z,30.23
2017-12-23T06:16:38.132Z,27.02
2017-12-23T06:19:05.576Z,24.12
2017-12-23T06:21:33.031Z,27.70
2017-12-23T06:24:00.482Z,28.00
2017-12-23T06:26:27.941Z,30.20
2017-12-23T06:28:55.442Z,23.25
2017-12-23T06:31:22.825Z,27.15
2017-12-23T06:33:50.272Z,28.00
2017-12-23T06:36:17.720Z,26.25
2017-12-23T06:38:45.154Z,26.12
2017-12-23T06:41:12.601Z,25.02
2017-12-23T06:43:40.051Z,26.40
2017-12-23T06:46:08.241Z,27.75
2017-12-23T06:48:36.467Z,24.90
2017-12-23T06:51:03.922Z,25.23
2017-12-23T06:53:31.356Z,28.08
2017-12-23T06:55:58.800Z,25.88
2017-12-23T06:58:26.252Z,26.23
2017-12-23T07:00:53.688Z,25.55
2017-12-23T07:03:21.230Z,28.45
2017-12-23T07:05:48.679Z,24.73
2017-12-23T07:08:16.892Z,25.90
2017-12-23T07:10:44.334Z,27.80
2017-12-23T07:13:12.009Z,30.17
2017-12-23T07:15:39.483Z,27.55
2017-12-23T07:18:06.924Z,25.33
2017-12-23T07:20:34.376Z,27.17
2017-12-23T07:23:01.844Z,28.12
2017-12-23T07:25:29.324Z,22.85
2017-12-23T07:27:56.756Z,24.40
2017-12-23T07:30:24.189Z,22.62
2017-12-23T07:32:51.670Z,25.45
2017-12-23T07:35:19.870Z,24.48
2017-12-23T07:37:47.321Z,27.35
2017-12-23T07:40:14.776Z,26.80
2017-12-23T07:42:42.223Z,29.58
2017-12-23T07:45:09.700Z,28.12
2017-12-23T07:47:37.912Z,27.50
2017-12-23T07:50:05.348Z,26.90
2017-12-23T07:52:32.800Z,22.48
2017-12-23T07:55:00.249Z,22.17
2017-12-23T07:57:27.683Z,26.37
2017-12-23T07:59:55.145Z,28.70
2017-12-23T08:02:22.588Z,25.42
2017-12-23T08:04:50.038Z,24.95
2017-12-23T08:07:17.512Z,26.55
2017-12-23T08:09:44.984Z,21.50
2017-12-23T08:12:12.412Z,25.48
2017-12-23T08:14:39.864Z,26.48
2017-12-23T08:17:07.304Z,23.33
2017-12-23T08:19:34.796Z,24.20
2017-12-23T08:22:02.245Z,23.83
2017-12-23T08:24:29.703Z,25.70
2017-12-23T08:26:57.154Z,22.90
2017-12-23T08:29:24.608Z,21.60
2017-12-23T08:31:52.075Z,22.83
2017-12-23T08:34:19.622Z,19.10
2017-12-23T08:36:47.204Z,22.08
2017-12-23T08:39:14.666Z,24.65
2017-12-23T08:41:42.222Z,23.30
2017-12-23T08:44:09.661Z,23.20
2017-12-23T08:46:37.109Z,22.08
2017-12-23T08:49:04.544Z,23.38
2017-12-23T08:51:31.988Z,24.30
2017-12-23T08:53:59.453Z,25.05
2017-12-23T08:56:26.868Z,21.85
2017-12-23T08:58:54.348Z,23.55
2017-12-23T09:01:21.809Z,20.15
2017-12-23T09:03:49.248Z,20.55
2017-12-23T09:06:19.599Z,24.48
2017-12-23T09:08:47.226Z,22.10
2017-12-23T09:11:15.444Z,29.23
2017-12-23T09:13:42.910Z,21.37
2017-12-23T09:16:10.448Z,22.92
2017-12-23T09:18:37.919Z,19.80
2017-12-23T09:21:06.137Z,23.35
2017-12-23T09:23:33.608Z,25.37
2017-12-23T09:26:01.036Z,23.67
2017-12-23T09:28:28.576Z,24.52
2017-12-23T09:30:56.025Z,21.75
2017-12-23T09:33:23.469Z,20.80
2017-12-23T09:35:50.921Z,23.05
2017-12-23T09:38:18.368Z,22.15
2017-12-23T09:40:46.575Z,19.83
2017-12-23T09:43:14.131Z,20.37
2017-12-23T09:45:41.584Z,22.05
2017-12-23T09:48:09.027Z,19.15
2017-12-23T09:50:36.467Z,21.08
2017-12-23T09:53:03.943Z,23.40
2017-12-23T09:55:32.144Z,20.08
2017-12-23T09:57:59.641Z,22.50
2017-12-23T10:00:27.148Z,21.12
2017-12-23T10:02:54.716Z,23.73
2017-12-23T10:05:22.169Z,21.10
2017-12-23T10:07:49.717Z,21.52
2017-12-23T10:10:17.152Z,22.37
2017-12-23T10:12:44.604Z,20.90
2017-12-23T10:15:12.828Z,19.90
2017-12-23T10:17:41.164Z,21.30
2017-12-23T10:20:08.652Z,20.12
2017-12-23T10:22:36.096Z,20.58
2017-12-23T10:25:03.552Z,19.05
2017-12-23T10:27:31.760Z,20.10
2017-12-23T10:29:59.205Z,21.23
2017-12-23T10:32:26.636Z,20.33
2017-12-23T10:34:54.108Z,17.58
2017-12-23T10:37:21.584Z,17.98
2017-12-23T10:39:50.554Z,16.55
2017-12-23T10:42:17.991Z,17.87
2017-12-23T10:44:45.438Z,15.15
2017-12-23T10:47:12.956Z,14.00
2017-12-23T10:49:40.392Z,14.75
2017-12-23T10:52:07.840Z,18.10
2017-12-23T10:54:35.425Z,18.58
2017-12-23T10:57:02.860Z,16.25
2017-12-23T10:59:30.326Z,14.87
2017-12-23T11:01:58.560Z,15.90
2017-12-23T11:04:26.021Z,15.57
2017-12-23T11:06:54.224Z,12.60
2017-12-23T11:09:21.715Z,14.82
2017-12-23T11:11:49.155Z,14.07
2017-12-23T11:14:16.701Z,13.50
2017-12-23T11:16:44.151Z,12.55
2017-12-23T11:19:11.650Z,12.00
2017-12-23T11:21:39.124Z,13.32
2017-12-23T11:24:08.089Z,13.15
2017-12-23T11:26:35.550Z,12.93
2017-12-23T11:29:02.985Z,13.77
2017-12-23T11:31:30.438Z,12.10
2017-12-23T11:33:57.885Z,12.57
2017-12-23T11:36:25.384Z,11.02
2017-12-23T11:38:52.861Z,11.35
2017-12-23T11:41:20.412Z,10.23
2017-12-23T11:43:47.844Z,10.90
2017-12-23T11:46:15.288Z,10.20
2017-12-23T11:48:42.746Z,13.48
2017-12-23T11:51:10.244Z,12.82
2017-12-23T11:53:37.816Z,11.00
2017-12-23T11:56:05.290Z,10.95
2017-12-23T11:58:33.583Z,10.13
2017-12-23T12:01:01.074Z,10.45
2017-12-23T12:03:28.561Z,8.52
2017-12-23T12:05:56.062Z,11.18
2017-12-23T12:08:23.554Z,8.95
2017-12-23T12:10:51.116Z,10.02
2017-12-23T12:13:18.588Z,10.02
2017-12-23T12:15:46.029Z,9.98
2017-12-23T12:18:13.557Z,8.40
2017-12-23T12:20:41.020Z,11.50
2017-12-23T12:23:08.596Z,9.88
2017-12-23T12:25:36.937Z,10.43
2017-12-23T12:28:04.382Z,26.00
2017-12-23T12:30:31.921Z,9.77
2017-12-23T12:32:59.438Z,8.23
2017-12-23T12:35:26.872Z,11.00
2017-12-23T12:37:54.346Z,9.95
2017-12-23T12:40:21.793Z,10.75
2017-12-23T12:42:49.447Z,10.30
2017-12-23T12:45:16.911Z,8.45
2017-12-23T12:47:44.335Z,7.25
2017-12-23T12:50:11.773Z,6.95
2017-12-23T12:52:39.213Z,7.10
2017-12-23T12:55:06.652Z,8.02
2017-12-23T12:57:34.093Z,7.25
2017-12-23T13:00:01.536Z,6.53
2017-12-23T13:02:29.054Z,6.95
2017-12-23T13:04:56.496Z,7.85
2017-12-23T13:07:23.938Z,8.52
2017-12-23T13:09:51.394Z,7.70
2017-12-23T13:12:19.707Z,6.57
2017-12-23T13:14:47.156Z,6.32
2017-12-23T13:17:14.584Z,6.82
2017-12-23T13:19:42.152Z,8.55
2017-12-23T13:22:09.590Z,6.12
2017-12-23T13:24:38.149Z,6.90
2017-12-23T13:27:05.575Z,6.60
2017-12-23T13:29:33.012Z,6.72
2017-12-23T13:32:00.600Z,12.70
2017-12-23T13:34:28.032Z,6.35
2017-12-23T13:36:55.476Z,6.47
2017-12-23T13:39:22.914Z,7.22
2017-12-23T13:41:50.411Z,6.45
2017-12-23T13:44:18.612Z,8.10
2017-12-23T13:46:46.112Z,6.18
2017-12-23T13:49:13.737Z,5.55
2017-12-23T13:51:41.177Z,5.95
2017-12-23T13:54:08.712Z,5.72
2017-12-23T13:56:36.264Z,5.97
2017-12-23T13:59:03.969Z,6.00
2017-12-23T14:01:31.449Z,5.20
2017-12-23T14:03:58.900Z,5.93
2017-12-23T14:06:26.337Z,5.20
2017-12-23T14:08:53.851Z,5.78
2017-12-23T14:11:21.268Z,5.32
2017-12-23T14:13:48.728Z,6.85
2017-12-23T14:16:16.161Z,6.95
2017-12-23T14:18:43.605Z,5.53
2017-12-23T14:21:11.091Z,5.80
2017-12-23T14:23:39.331Z,6.90
2017-12-23T14:26:06.764Z,7.05
2017-12-23T14:28:34.212Z,6.35
2017-12-23T14:31:01.645Z,7.05
2017-12-23T14:33:29.146Z,6.55
2017-12-23T14:35:56.674Z,4.12
2017-12-23T14:38:24.144Z,8.00
2017-12-23T14:40:52.361Z,6.62
2017-12-23T14:43:19.955Z,7.62
2017-12-23T14:45:47.404Z,5.37
2017-12-23T14:48:14.888Z,4.72
2017-12-23T14:50:42.424Z,4.50
2017-12-23T14:53:09.868Z,4.37
2017-12-23T14:55:38.273Z,5.95
2017-12-23T14:58:05.810Z,5.07
2017-12-23T15:00:33.286Z,11.43
2017-12-23T15:03:01.472Z,20.12
2017-12-23T15:05:28.934Z,8.43
2017-12-23T15:07:56.406Z,7.55
2017-12-23T15:10:24.730Z,6.75
2017-12-23T15:12:52.202Z,5.12
2017-12-23T15:15:19.655Z,5.15
2017-12-23T15:17:47.081Z,4.40
2017-12-23T15:20:14.627Z,4.90
2017-12-23T15:22:42.057Z,7.80
2017-12-23T15:25:09.548Z,5.57
2017-12-23T15:27:37.777Z,6.72
2017-12-23T15:30:05.214Z,7.60
2017-12-23T15:32:32.661Z,6.82
2017-12-23T15:35:00.100Z,7.62
2017-12-23T15:37:27.568Z,7.30
2017-12-23T15:39:55.000Z,6.80
2017-12-23T15:42:22.441Z,8.45
2017-12-23T15:44:50.640Z,8.52
2017-12-23T15:47:18.075Z,8.77
2017-12-23T15:49:45.697Z,10.88
2017-12-23T15:52:13.255Z,7.62
2017-12-23T15:54:41.463Z,12.45
2017-12-23T15:57:08.940Z,9.35
2017-12-23T15:59:36.365Z,8.65
2017-12-23T16:02:03.833Z,8.00
2017-12-23T16:04:31.252Z,8.65
2017-12-23T16:06:58.696Z,9.10
2017-12-23T16:09:26.281Z,12.15
2017-12-23T16:11:53.748Z,11.27
2017-12-23T16:14:21.186Z,10.98
2017-12-23T16:16:48.629Z,11.30
2017-12-23T16:19:16.119Z,14.02
2017-12-23T16:21:44.456Z,10.30
2017-12-23T16:24:11.887Z,8.88
2017-12-23T16:26:39.410Z,9.23
2017-12-23T16:29:07.642Z,8.77
2017-12-23T16:31:35.075Z,11.15
2017-12-23T16:34:02.508Z,10.07
2017-12-23T16:36:30.033Z,9.40
2017-12-23T16:38:57.794Z,9.02
2017-12-23T16:41:25.289Z,9.10
2017-12-23T16:43:53.535Z,10.40
2017-12-23T16:46:21.030Z,9.10
2017-12-23T16:48:48.566Z,8.60
2017-12-23T16:51:16.185Z,9.63
2017-12-23T16:53:44.462Z,8.52
2017-12-23T16:56:11.945Z,10.82
2017-12-23T16:58:39.394Z,8.82
2017-12-23T17:01:06.847Z,8.55
2017-12-23T17:03:34.329Z,7.95
2017-12-23T17:06:01.789Z,8.73
2017-12-23T17:08:29.223Z,8.57
2017-12-23T17:10:56.812Z,9.75
2017-12-23T17:13:24.246Z,8.57
2017-12-23T17:15:51.684Z,9.07
2017-12-23T17:18:19.195Z,10.90
2017-12-23T17:20:46.731Z,15.38
2017-12-23T17:23:14.936Z,11.15
2017-12-23T17:25:42.439Z,10.35
2017-12-23T17:28:16.550Z,9.23
2017-12-23T17:30:44.060Z,8.25
2017-12-23T17:33:12.280Z,10.20
2017-12-23T17:35:40.740Z,9.70
2017-12-23T17:38:08.218Z,10.63
2017-12-23T17:40:35.644Z,8.93
2017-12-23T17:43:03.137Z,8.52
2017-12-23T17:45:30.597Z,9.13
2017-12-23T17:47:58.084Z,10.80
2017-12-23T17:50:25.611Z,9.50
2017-12-23T17:52:53.056Z,10.25
2017-12-23T17:55:20.516Z,9.65
2017-12-23T17:57:48.009Z,9.02
2017-12-23T18:00:15.542Z,8.98
2017-12-23T18:02:43.079Z,9.18
2017-12-23T18:05:10.563Z,11.52
2017-12-23T18:07:38.230Z,10.38
2017-12-23T18:10:05.762Z,9.18
2017-12-23T18:12:33.205Z,9.38
2017-12-23T18:15:00.664Z,11.50
2017-12-23T18:17:28.160Z,10.20
2017-12-23T18:19:55.928Z,9.45
2017-12-23T18:22:23.422Z,11.18
2017-12-23T18:24:50.900Z,10.00
2017-12-23T18:27:19.255Z,9.15
2017-12-23T18:29:46.741Z,11.38
2017-12-23T18:32:14.236Z,9.18
2017-12-23T18:34:41.748Z,10.73
2017-12-23T18:37:09.239Z,9.50
2017-12-23T18:39:36.804Z,9.73
2017-12-23T18:42:04.238Z,8.40
2017-12-23T18:44:31.728Z,8.73
2017-12-23T18:46:59.228Z,10.25
2017-12-23T18:49:26.722Z,9.43
2017-12-23T18:51:54.201Z,10.73
2017-12-23T18:54:21.680Z,12.70
2017-12-23T18:56:49.156Z,13.57
2017-12-23T18:59:16.610Z,9.48
2017-12-23T19:01:44.900Z,11.98
2017-12-23T19:04:12.393Z,9.15
2017-12-23T19:06:39.988Z,10.38
2017-12-23T19:09:07.420Z,10.00
2017-12-23T19:11:34.901Z,10.85
2017-12-23T19:14:03.145Z,9.95
2017-12-23T19:16:42.307Z,10.95
2017-12-23T19:19:09.793Z,9.95
2017-12-23T19:21:37.266Z,13.13
2017-12-23T19:24:04.745Z,8.98
2017-12-23T19:26:32.169Z,10.48
2017-12-23T19:28:59.664Z,12.75
2017-12-23T19:31:27.152Z,11.25
2017-12-23T19:33:54.645Z,14.55
2017-12-23T19:36:22.118Z,37.83
2017-12-23T19:38:49.601Z,11.98
2017-12-23T19:41:17.080Z,11.27
2017-12-23T19:43:44.499Z,12.55
2017-12-23T19:46:12.738Z,13.65
2017-12-23T19:48:40.268Z,20.25
2017-12-23T19:51:07.775Z,12.35
2017-12-23T19:53:35.302Z,14.07
2017-12-23T19:56:02.997Z,14.35
2017-12-23T19:58:30.491Z,12.13
2017-12-23T20:00:58.920Z,12.23
2017-12-23T20:03:26.471Z,12.10
2017-12-23T20:05:53.944Z,12.95
2017-12-23T20:08:22.185Z,10.70
2017-12-23T20:10:49.653Z,11.82
2017-12-23T20:13:17.911Z,12.85
2017-12-23T20:15:45.470Z,10.52
2017-12-23T20:18:13.040Z,11.43
2017-12-23T20:20:40.499Z,14.18
2017-12-23T20:23:08.019Z,12.35
2017-12-23T20:25:35.507Z,11.30
2017-12-23T20:28:02.991Z,12.25
2017-12-23T20:30:30.497Z,12.48
2017-12-23T20:32:57.981Z,11.55
2017-12-23T20:35:25.525Z,13.35
2017-12-23T20:37:53.066Z,13.15
2017-12-23T20:40:20.619Z,11.80
2017-12-23T20:42:48.091Z,11.07
2017-12-23T20:45:15.604Z,9.73
2017-12-23T20:47:43.863Z,9.50
2017-12-23T20:50:11.387Z,9.65
2017-12-23T20:52:39.622Z,10.35
2017-12-23T20:55:07.131Z,10.27
2017-12-23T20:57:34.607Z,10.88
2017-12-23T21:00:02.091Z,9.57
2017-12-23T21:02:30.326Z,9.70
2017-12-23T21:04:57.817Z,10.32
2017-12-23T21:07:25.280Z,9.75
2017-12-23T21:09:52.800Z,10.75
2017-12-23T21:12:20.351Z,10.38
2017-12-23T21:14:47.839Z,9.05
2017-12-23T21:17:15.480Z,8.73
2017-12-23T21:19:43.043Z,9.52
2017-12-23T21:22:10.482Z,10.52
2017-12-23T21:24:37.975Z,9.65
2017-12-23T21:27:05.475Z,9.85
2017-12-23T21:29:33.890Z,9.45
2017-12-23T21:32:01.367Z,9.90
2017-12-23T21:34:28.847Z,9.98
2017-12-23T21:36:56.364Z,9.60
2017-12-23T21:39:23.828Z,8.48
2017-12-23T21:41:52.110Z,9.80
2017-12-23T21:44:19.602Z,9.93
2017-12-23T21:46:47.104Z,10.63
2017-12-23T21:49:14.616Z,10.07
2017-12-23T21:51:42.159Z,10.65
2017-12-23T21:54:10.406Z,11.63
2017-12-23T21:56:37.924Z,10.05
2017-12-23T21:59:05.349Z,10.30
2017-12-23T22:01:32.836Z,12.25
2017-12-23T22:04:00.327Z,9.23
2017-12-23T22:06:27.799Z,11.70
2017-12-23T22:08:55.295Z,14.10
2017-12-23T22:11:23.533Z,10.95
2017-12-23T22:13:51.046Z,13.00
2017-12-23T22:16:18.472Z,14.00
2017-12-23T22:18:45.958Z,11.82
2017-12-23T22:21:13.569Z,13.07
2017-12-23T22:23:41.149Z,11.80
2017-12-23T22:26:08.637Z,11.45
2017-12-23T22:28:36.117Z,11.27
2017-12-23T22:31:03.597Z,13.60
2017-12-23T22:33:31.856Z,12.13
2017-12-23T22:36:00.112Z,12.40
2017-12-23T22:38:27.580Z,8.98
2017-12-23T22:40:55.064Z,11.65
2017-12-23T22:43:23.444Z,11.38
2017-12-23T22:45:51.037Z,11.45
2017-12-23T22:48:18.509Z,11.65
2017-12-23T22:50:45.981Z,11.50
2017-12-23T22:53:13.475Z,13.68
2017-12-23T22:55:40.988Z,13.23
2017-12-23T22:58:09.241Z,12.95
2017-12-23T23:00:36.732Z,11.23
2017-12-23T23:03:04.208Z,12.00
2017-12-23T23:05:31.635Z,11.38
2017-12-23T23:07:59.131Z,11.57
2017-12-23T23:10:27.369Z,11.15
2017-12-23T23:12:54.852Z,11.75
2017-12-23T23:15:22.349Z,11.75
2017-12-23T23:17:49.824Z,11.48
2017-12-23T23:20:18.057Z,12.80
2017-12-23T23:22:45.543Z,12.37
2017-12-23T23:25:13.149Z,12.00
2017-12-23T23:27:40.739Z,11.73
2017-12-23T23:30:08.207Z,10.68
2017-12-23T23:32:35.682Z,10.80
2017-12-23T23:35:03.100Z,9.98
2017-12-23T23:37:30.589Z,10.50
2017-12-23T23:39:58.106Z,10.35
2017-12-23T23:42:25.594Z,12.00
2017-12-23T23:44:53.129Z,11.70
2017-12-23T23:47:20.613Z,10.85
2017-12-23T23:49:48.045Z,10.90
2017-12-23T23:52:15.480Z,10.57
2017-12-23T23:54:43.959Z,10.27
2017-12-23T23:57:11.447Z,11.75
2017-12-23T23:59:38.965Z,11.82
